createdAt,value
2022-12-03T00:00:23.022Z,2.89
2022-12-03T00:02:51.168Z,2.89
2022-12-03T00:05:18.959Z,2.88
2022-12-03T00:07:49.475Z,2.87
2022-12-03T00:10:17.188Z,2.87
2022-12-03T00:12:44.882Z,2.85
2022-12-03T00:15:12.519Z,2.85
2022-12-03T00:17:40.148Z,2.85
2022-12-03T00:20:09.566Z,2.85
2022-12-03T00:22:37.168Z,2.85
2022-12-03T00:25:05.114Z,2.85
2022-12-03T00:27:32.772Z,2.85
2022-12-03T00:30:00.437Z,2.85
2022-12-03T00:32:28.408Z,2.85
2022-12-03T00:34:56.236Z,2.87
2022-12-03T00:37:23.930Z,2.88
2022-12-03T00:39:51.573Z,2.88
2022-12-03T00:42:19.201Z,2.89
2022-12-03T00:44:48.297Z,2.89
2022-12-03T00:47:15.947Z,2.89
2022-12-03T00:49:43.621Z,2.88
2022-12-03T00:52:11.247Z,2.87
2022-12-03T00:54:38.863Z,2.86
2022-12-03T00:57:07.202Z,2.86
2022-12-03T00:59:34.863Z,2.85
2022-12-03T01:02:02.555Z,2.84
2022-12-03T01:04:30.325Z,2.83
2022-12-03T01:06:57.936Z,2.83
2022-12-03T01:09:29.522Z,2.84
2022-12-03T01:11:57.153Z,2.87
2022-12-03T01:14:24.726Z,2.88
2022-12-03T01:16:52.306Z,2.89
2022-12-03T01:19:20.122Z,2.89
2022-12-03T01:21:48.087Z,2.88
2022-12-03T01:24:15.656Z,2.89
2022-12-03T01:26:43.261Z,2.92
2022-12-03T01:29:10.854Z,2.92
2022-12-03T01:31:56.652Z,2.93
2022-12-03T01:34:25.252Z,2.94
2022-12-03T01:36:53.613Z,2.93
2022-12-03T01:39:21.217Z,2.93
2022-12-03T01:41:48.770Z,2.91
2022-12-03T01:44:16.697Z,2.90
2022-12-03T01:46:45.041Z,2.89
2022-12-03T01:49:12.684Z,2.88
2022-12-03T01:51:40.273Z,2.88
2022-12-03T01:54:08.239Z,2.89
2022-12-03T01:56:36.245Z,2.90
2022-12-03T01:59:03.878Z,2.88
2022-12-03T02:01:31.564Z,2.87
2022-12-03T02:03:59.316Z,2.87
2022-12-03T02:06:26.916Z,2.88
2022-12-03T02:09:00.159Z,2.86
2022-12-03T02:11:27.799Z,2.87
2022-12-03T02:13:55.405Z,2.86
2022-12-03T02:16:23.078Z,2.88
2022-12-03T02:18:50.720Z,2.88
2022-12-03T02:21:18.679Z,2.86
2022-12-03T02:23:46.310Z,2.83
2022-12-03T02:26:13.917Z,2.82
2022-12-03T02:28:41.509Z,2.80
2022-12-03T02:31:09.179Z,2.79
2022-12-03T02:33:37.219Z,2.79
2022-12-03T02:36:05.307Z,2.81
2022-12-03T02:38:33.297Z,2.82
2022-12-03T02:41:00.880Z,2.82
2022-12-03T02:43:27.416Z,2.82
2022-12-03T02:45:55.416Z,2.83
2022-12-03T02:48:24.710Z,2.79
2022-12-03T02:50:52.303Z,2.79
2022-12-03T02:53:19.889Z,2.78
2022-12-03T02:55:47.450Z,2.77
2022-12-03T02:58:15.404Z,2.76
2022-12-03T03:00:47.727Z,2.75
2022-12-03T03:03:15.355Z,2.71
2022-12-03T03:05:42.954Z,2.70
2022-12-03T03:08:10.669Z,2.67
2022-12-03T03:10:38.726Z,2.67
2022-12-03T03:13:08.155Z,2.66
2022-12-03T03:15:35.888Z,2.64
2022-12-03T03:18:03.443Z,2.62
2022-12-03T03:20:30.987Z,2.61
2022-12-03T03:22:59.301Z,2.57
2022-12-03T03:25:26.882Z,2.56
2022-12-03T03:27:54.467Z,2.55
2022-12-03T03:30:22.063Z,2.54
2022-12-03T03:32:49.609Z,2.54
2022-12-03T03:35:18.473Z,2.54
2022-12-03T03:37:46.070Z,2.53
2022-12-03T03:40:13.917Z,2.53
2022-12-03T03:42:41.474Z,2.53
2022-12-03T03:45:09.051Z,2.52
2022-12-03T03:47:37.087Z,2.51
2022-12-03T03:50:05.510Z,2.50
2022-12-03T03:52:33.100Z,2.51
2022-12-03T03:55:00.677Z,2.51
2022-12-03T03:57:28.215Z,2.53
2022-12-03T03:59:56.151Z,2.52
2022-12-03T04:02:23.706Z,2.53
2022-12-03T04:04:51.976Z,2.53
2022-12-03T04:07:19.760Z,2.52
2022-12-03T04:09:47.329Z,2.51
2022-12-03T04:12:32.837Z,2.53
2022-12-03T04:15:01.760Z,2.54
2022-12-03T04:17:29.364Z,2.54
2022-12-03T04:19:56.957Z,2.52
2022-12-03T04:22:41.723Z,2.52
2022-12-03T04:25:27.249Z,2.51
2022-12-03T04:28:12.194Z,2.50
2022-12-03T04:30:39.901Z,2.50
2022-12-03T04:33:25.110Z,2.48
2022-12-03T04:35:52.790Z,2.49
2022-12-03T04:38:20.386Z,2.48
2022-12-03T04:41:04.378Z,2.48
2022-12-03T04:43:32.286Z,2.45
2022-12-03T04:45:59.912Z,2.45
2022-12-03T04:48:27.608Z,2.44
2022-12-03T04:50:55.204Z,2.43
2022-12-03T04:53:22.773Z,2.43
2022-12-03T04:55:50.794Z,2.44
2022-12-03T04:58:18.365Z,2.44
2022-12-03T05:00:45.957Z,2.43
2022-12-03T05:03:13.584Z,2.44
2022-12-03T05:05:41.613Z,2.43
2022-12-03T05:08:09.961Z,2.44
2022-12-03T05:10:37.615Z,2.45
2022-12-03T05:13:05.213Z,2.46
2022-12-03T05:15:32.769Z,2.45
2022-12-03T05:18:01.768Z,2.45
2022-12-03T05:20:51.510Z,2.46
2022-12-03T05:23:20.997Z,2.48
2022-12-03T05:25:48.567Z,2.47
2022-12-03T05:28:22.316Z,2.45
2022-12-03T05:30:49.942Z,2.44
2022-12-03T05:33:17.554Z,2.44
2022-12-03T05:35:45.143Z,2.43
2022-12-03T05:38:12.682Z,2.43
2022-12-03T05:40:42.163Z,2.43
2022-12-03T05:43:09.292Z,2.46
2022-12-03T05:45:36.901Z,2.45
2022-12-03T05:48:04.454Z,2.45
2022-12-03T05:50:32.355Z,2.46
2022-12-03T05:53:01.711Z,2.47
2022-12-03T05:55:29.696Z,2.47
2022-12-03T05:57:57.297Z,2.45
2022-12-03T06:00:24.901Z,2.42
2022-12-03T06:02:52.527Z,2.40
2022-12-03T06:05:21.657Z,2.36
2022-12-03T06:07:49.679Z,2.32
2022-12-03T06:10:17.309Z,2.29
2022-12-03T06:12:45.239Z,2.24
2022-12-03T06:15:12.785Z,2.22
2022-12-03T06:17:41.970Z,2.19
2022-12-03T06:20:09.923Z,2.14
2022-12-03T06:22:37.464Z,2.09
2022-12-03T06:25:06.927Z,2.08
2022-12-03T06:27:35.022Z,2.08
2022-12-03T06:30:02.594Z,2.09
2022-12-03T06:32:30.526Z,2.11
2022-12-03T06:34:58.505Z,2.14
2022-12-03T06:37:26.055Z,2.12
2022-12-03T06:39:53.677Z,2.14
2022-12-03T06:42:21.330Z,2.14
2022-12-03T06:44:49.286Z,2.11
2022-12-03T06:47:16.884Z,2.09
2022-12-03T06:49:44.477Z,2.08
2022-12-03T06:52:12.072Z,2.07
2022-12-03T06:54:39.729Z,2.08
2022-12-03T06:57:07.659Z,2.08
2022-12-03T06:59:37.617Z,2.09
2022-12-03T07:02:05.296Z,2.07
2022-12-03T07:04:33.016Z,2.08
2022-12-03T07:07:00.686Z,2.07
2022-12-03T07:09:28.662Z,2.06
2022-12-03T07:11:56.283Z,2.05
2022-12-03T07:14:23.856Z,2.06
2022-12-03T07:16:51.451Z,2.06
2022-12-03T07:19:27.570Z,2.05
2022-12-03T07:21:58.726Z,2.06
2022-12-03T07:24:26.341Z,2.07
2022-12-03T07:26:53.985Z,2.07
2022-12-03T07:29:23.544Z,2.08
2022-12-03T07:31:51.349Z,2.08
2022-12-03T07:34:19.051Z,2.11
2022-12-03T07:36:46.684Z,2.10
2022-12-03T07:39:14.283Z,2.11
2022-12-03T07:41:43.019Z,2.10
2022-12-03T07:44:14.335Z,2.11
2022-12-03T07:46:42.712Z,2.14
2022-12-03T07:49:10.365Z,2.17
2022-12-03T07:51:37.954Z,2.16
2022-12-03T07:54:06.370Z,2.18
2022-12-03T07:56:33.935Z,2.21
2022-12-03T07:59:02.004Z,2.25
2022-12-03T08:01:30.147Z,2.28
2022-12-03T08:04:06.158Z,2.31
2022-12-03T08:06:36.362Z,2.33
2022-12-03T08:09:04.347Z,2.35
2022-12-03T08:11:31.999Z,2.34
2022-12-03T08:13:59.648Z,2.35
2022-12-03T08:16:27.356Z,2.36
2022-12-03T08:18:57.629Z,2.37
2022-12-03T08:21:25.635Z,2.39
2022-12-03T08:23:53.253Z,2.42
2022-12-03T08:26:20.919Z,2.46
2022-12-03T08:28:48.542Z,2.49
2022-12-03T08:31:18.722Z,2.52
2022-12-03T08:33:46.850Z,2.56
2022-12-03T08:36:14.628Z,2.59
2022-12-03T08:38:42.230Z,2.61
2022-12-03T08:41:09.938Z,2.63
2022-12-03T08:43:42.146Z,2.66
2022-12-03T08:46:09.765Z,2.67
2022-12-03T08:48:38.144Z,2.71
2022-12-03T08:51:05.961Z,2.75
2022-12-03T08:53:33.843Z,2.77
2022-12-03T08:56:03.096Z,2.77
2022-12-03T08:58:31.098Z,2.79
2022-12-03T09:00:58.995Z,2.82
2022-12-03T09:03:26.754Z,2.85
2022-12-03T09:05:54.970Z,2.86
2022-12-03T09:08:22.683Z,2.89
2022-12-03T09:10:50.676Z,2.94
2022-12-03T09:13:18.511Z,3.00
2022-12-03T09:15:46.218Z,3.03
2022-12-03T09:18:14.541Z,3.09
2022-12-03T09:20:44.010Z,3.12
2022-12-03T09:23:11.960Z,3.13
2022-12-03T09:25:39.638Z,3.18
2022-12-03T09:28:07.794Z,3.22
2022-12-03T09:30:35.514Z,3.28
2022-12-03T09:33:05.825Z,3.32
2022-12-03T09:35:33.961Z,3.33
2022-12-03T09:38:01.729Z,3.36
2022-12-03T09:40:29.424Z,3.38
2022-12-03T09:42:58.833Z,3.40
2022-12-03T09:45:27.936Z,3.39
2022-12-03T09:47:56.052Z,3.38
2022-12-03T09:50:24.432Z,3.38
2022-12-03T09:52:52.483Z,3.39
2022-12-03T09:55:23.303Z,3.42
2022-12-03T09:57:51.862Z,3.43
2022-12-03T10:00:20.001Z,3.40
2022-12-03T10:02:47.915Z,3.37
2022-12-03T10:05:15.794Z,3.36
2022-12-03T10:07:43.700Z,3.32
2022-12-03T10:10:12.633Z,3.30
2022-12-03T10:12:41.635Z,3.28
2022-12-03T10:15:09.391Z,3.28
2022-12-03T10:17:37.163Z,3.28
2022-12-03T10:20:04.977Z,3.28
2022-12-03T10:22:37.622Z,3.32
2022-12-03T10:25:05.959Z,3.35
2022-12-03T10:27:33.646Z,3.37
2022-12-03T10:30:01.516Z,3.38
2022-12-03T10:32:29.397Z,3.37
2022-12-03T10:35:01.157Z,3.36
2022-12-03T10:37:29.442Z,3.33
2022-12-03T10:39:57.207Z,3.29
2022-12-03T10:42:24.996Z,3.26
2022-12-03T10:44:54.169Z,3.27
2022-12-03T10:47:25.256Z,3.31
2022-12-03T10:49:53.312Z,3.37
2022-12-03T10:52:25.675Z,3.36
2022-12-03T10:54:54.033Z,3.40
2022-12-03T10:57:22.396Z,3.41
2022-12-03T10:59:50.228Z,3.40
2022-12-03T11:02:18.606Z,3.39
2022-12-03T11:04:46.397Z,3.41
2022-12-03T11:07:14.120Z,3.44
2022-12-03T11:09:41.777Z,3.46
2022-12-03T11:12:10.415Z,3.47
2022-12-03T11:14:38.902Z,3.51
2022-12-03T11:17:06.840Z,3.52
2022-12-03T11:19:34.933Z,3.53
2022-12-03T11:22:02.706Z,3.56
2022-12-03T11:24:31.013Z,3.57
2022-12-03T11:26:59.605Z,3.56
2022-12-03T11:29:27.608Z,3.56
2022-12-03T11:31:55.373Z,3.55
2022-12-03T11:34:23.331Z,3.53
2022-12-03T11:37:01.442Z,3.49
2022-12-03T11:39:30.464Z,3.46
2022-12-03T11:41:58.242Z,3.46
2022-12-03T11:44:26.097Z,3.44
2022-12-03T11:46:54.738Z,3.43
2022-12-03T11:49:22.689Z,3.44
2022-12-03T11:51:51.008Z,3.46
2022-12-03T11:54:19.074Z,3.46
2022-12-03T11:56:47.608Z,3.46
2022-12-03T11:59:19.602Z,3.46
2022-12-03T12:01:47.470Z,3.44
2022-12-03T12:04:15.733Z,3.43
2022-12-03T12:06:43.771Z,3.43
2022-12-03T12:09:11.505Z,3.44
2022-12-03T12:11:41.824Z,3.44
2022-12-03T12:14:09.872Z,3.45
2022-12-03T12:16:38.321Z,3.46
2022-12-03T12:19:06.205Z,3.46
2022-12-03T12:21:34.627Z,3.43
2022-12-03T12:24:02.725Z,3.41
2022-12-03T12:26:31.155Z,3.42
2022-12-03T12:28:59.894Z,3.42
2022-12-03T12:31:27.808Z,3.42
2022-12-03T12:33:55.759Z,3.43
2022-12-03T12:36:25.378Z,3.42
2022-12-03T12:38:53.330Z,3.39
2022-12-03T12:41:21.281Z,3.37
2022-12-03T12:43:49.821Z,3.36
2022-12-03T12:46:46.602Z,3.37
2022-12-03T12:49:06.561Z,3.37
2022-12-03T12:51:34.510Z,3.36
2022-12-03T12:54:02.321Z,3.35
2022-12-03T12:56:30.788Z,3.36
2022-12-03T12:58:59.341Z,3.35
2022-12-03T13:01:28.780Z,3.33
2022-12-03T13:03:57.710Z,3.32
2022-12-03T13:06:25.525Z,3.32
2022-12-03T13:08:53.290Z,3.32
2022-12-03T13:11:21.419Z,3.32
2022-12-03T13:13:50.899Z,3.33
2022-12-03T13:16:19.231Z,3.34
2022-12-03T13:18:47.319Z,3.33
2022-12-03T13:21:15.302Z,3.35
2022-12-03T13:23:43.159Z,3.32
2022-12-03T13:26:30.404Z,3.30
2022-12-03T13:29:02.893Z,3.30
2022-12-03T13:31:31.001Z,3.29
2022-12-03T13:33:58.765Z,3.30
2022-12-03T13:36:28.282Z,3.29
2022-12-03T13:38:56.281Z,3.30
2022-12-03T13:41:41.975Z,3.31
2022-12-03T13:44:09.893Z,3.29
2022-12-03T13:46:39.225Z,3.26
2022-12-03T13:49:07.027Z,3.19
2022-12-03T13:51:34.989Z,3.16
2022-12-03T13:54:02.865Z,3.13
2022-12-03T13:56:30.817Z,3.09
2022-12-03T13:59:00.591Z,3.08
2022-12-03T14:01:28.565Z,3.04
2022-12-03T14:03:56.451Z,3.04
2022-12-03T14:06:24.763Z,3.03
2022-12-03T14:08:53.072Z,3.04
2022-12-03T14:11:34.715Z,3.04
2022-12-03T14:14:02.498Z,3.04
2022-12-03T14:16:30.295Z,3.00
2022-12-03T14:18:58.186Z,2.99
2022-12-03T14:21:25.958Z,2.99
2022-12-03T14:23:55.570Z,2.95
2022-12-03T14:26:23.482Z,2.93
2022-12-03T14:28:51.752Z,2.91
2022-12-03T14:31:19.601Z,2.88
2022-12-03T14:33:47.473Z,2.87
2022-12-03T14:36:16.407Z,2.85
2022-12-03T14:38:44.354Z,2.83
2022-12-03T14:41:26.657Z,2.83
2022-12-03T14:43:54.625Z,2.81
2022-12-03T14:46:22.550Z,2.81
2022-12-03T14:48:50.576Z,2.78
2022-12-03T14:51:18.388Z,2.76
2022-12-03T14:53:46.555Z,2.74
2022-12-03T14:56:14.457Z,2.74
2022-12-03T14:58:42.346Z,2.74
2022-12-03T15:01:10.404Z,2.74
2022-12-03T15:03:38.427Z,2.73
2022-12-03T15:06:06.988Z,2.72
2022-12-03T15:08:34.784Z,2.70
2022-12-03T15:11:06.917Z,2.70
2022-12-03T15:13:34.924Z,2.69
2022-12-03T15:16:02.732Z,2.68
2022-12-03T15:18:31.538Z,2.68
2022-12-03T15:20:59.376Z,2.66
2022-12-03T15:23:29.059Z,2.65
2022-12-03T15:25:57.287Z,2.62
2022-12-03T15:28:25.151Z,2.63
2022-12-03T15:30:53.778Z,2.60
2022-12-03T15:33:22.204Z,2.58
2022-12-03T15:35:52.627Z,2.60
2022-12-03T15:38:20.697Z,2.59
2022-12-03T15:40:48.492Z,2.59
2022-12-03T15:43:17.051Z,2.58
2022-12-03T15:45:45.009Z,2.58
2022-12-03T15:48:14.410Z,2.59
2022-12-03T15:50:42.174Z,2.57
2022-12-03T15:53:09.962Z,2.58
2022-12-03T15:55:38.746Z,2.57
2022-12-03T15:58:06.739Z,2.58
2022-12-03T16:00:36.468Z,2.58
2022-12-03T16:03:04.627Z,2.58
2022-12-03T16:05:32.521Z,2.57
2022-12-03T16:08:00.798Z,2.57
2022-12-03T16:10:28.916Z,2.57
2022-12-03T16:12:56.716Z,2.57
2022-12-03T16:15:27.208Z,2.56
2022-12-03T16:17:55.507Z,2.56
2022-12-03T16:20:23.674Z,2.56
2022-12-03T16:22:51.494Z,2.53
2022-12-03T16:25:20.432Z,2.51
2022-12-03T16:27:48.147Z,2.50
2022-12-03T16:30:16.065Z,2.50
2022-12-03T16:32:43.997Z,2.49
2022-12-03T16:35:11.962Z,2.49
2022-12-03T16:37:40.600Z,2.49
2022-12-03T16:40:09.249Z,2.51
2022-12-03T16:42:37.965Z,2.52
2022-12-03T16:45:19.768Z,2.53
2022-12-03T16:47:47.735Z,2.54
2022-12-03T16:50:21.796Z,2.51
2022-12-03T16:52:52.530Z,2.49
2022-12-03T16:55:20.755Z,2.49
2022-12-03T16:57:48.530Z,2.51
2022-12-03T17:00:16.817Z,2.50
2022-12-03T17:02:44.840Z,2.49
2022-12-03T17:05:12.844Z,2.49
2022-12-03T17:07:41.392Z,2.48
2022-12-03T17:10:10.187Z,2.47
2022-12-03T17:13:07.573Z,2.48
2022-12-03T17:15:25.980Z,2.48
2022-12-03T17:17:54.390Z,2.48
2022-12-03T17:20:22.660Z,2.48
2022-12-03T17:22:50.581Z,2.46
2022-12-03T17:25:18.481Z,2.46
2022-12-03T17:27:46.438Z,2.45
2022-12-03T17:30:14.852Z,2.44
2022-12-03T17:32:42.732Z,2.46
2022-12-03T17:35:10.604Z,2.46
2022-12-03T17:37:38.584Z,2.44
2022-12-03T17:40:06.512Z,2.45
2022-12-03T17:42:35.191Z,2.46
2022-12-03T17:45:06.566Z,2.47
2022-12-03T17:47:34.593Z,2.47
2022-12-03T17:50:02.549Z,2.47
2022-12-03T17:52:30.505Z,2.47
2022-12-03T17:55:23.639Z,2.47
2022-12-03T17:57:46.693Z,2.45
2022-12-03T18:00:14.559Z,2.46
2022-12-03T18:02:42.760Z,2.47
2022-12-03T18:05:10.779Z,2.44
2022-12-03T18:07:38.805Z,2.43
2022-12-03T18:10:06.746Z,2.41
2022-12-03T18:12:34.896Z,2.40
2022-12-03T18:15:02.662Z,2.37
2022-12-03T18:17:30.653Z,2.34
2022-12-03T18:19:58.671Z,2.34
2022-12-03T18:22:27.882Z,2.33
2022-12-03T18:24:56.368Z,2.32
2022-12-03T18:27:24.382Z,2.33
2022-12-03T18:29:52.974Z,2.34
2022-12-03T18:32:29.006Z,2.33
2022-12-03T18:34:57.796Z,2.31
2022-12-03T18:37:25.716Z,2.34
2022-12-03T18:39:54.501Z,2.33
2022-12-03T18:42:22.782Z,2.32
2022-12-03T18:44:50.619Z,2.33
2022-12-03T18:47:20.337Z,2.32
2022-12-03T18:49:48.240Z,2.31
2022-12-03T18:52:16.510Z,2.30
2022-12-03T18:54:44.301Z,2.29
2022-12-03T18:57:12.344Z,2.27
2022-12-03T18:59:41.195Z,2.26
2022-12-03T19:02:09.223Z,2.26
2022-12-03T19:04:38.007Z,2.26
2022-12-03T19:07:06.350Z,2.26
2022-12-03T19:09:34.211Z,2.28
2022-12-03T19:12:07.597Z,2.28
2022-12-03T19:14:39.532Z,2.28
2022-12-03T19:17:07.491Z,2.29
2022-12-03T19:19:35.507Z,2.31
2022-12-03T19:22:05.290Z,2.32
2022-12-03T19:24:33.170Z,2.32
2022-12-03T19:27:01.568Z,2.32
2022-12-03T19:29:29.421Z,2.31
2022-12-03T19:31:57.460Z,2.30
2022-12-03T19:34:25.358Z,2.29
2022-12-03T19:36:53.281Z,2.30
2022-12-03T19:39:21.665Z,2.30
2022-12-03T19:41:49.585Z,2.28
2022-12-03T19:44:17.339Z,2.28
2022-12-03T19:46:45.966Z,2.29
2022-12-03T19:49:13.850Z,2.28
2022-12-03T19:51:42.079Z,2.29
2022-12-03T19:54:10.175Z,2.28
2022-12-03T19:56:38.022Z,2.27
2022-12-03T19:59:07.904Z,2.26
2022-12-03T20:01:35.965Z,2.27
2022-12-03T20:04:04.575Z,2.25
2022-12-03T20:06:32.326Z,2.24
2022-12-03T20:09:00.798Z,2.24
2022-12-03T20:11:28.613Z,2.25
2022-12-03T20:13:56.402Z,2.24
2022-12-03T20:16:24.940Z,2.24
2022-12-03T20:18:52.979Z,2.25
2022-12-03T20:21:20.892Z,2.25
2022-12-03T20:23:48.902Z,2.25
2022-12-03T20:26:16.837Z,2.26
2022-12-03T20:28:45.238Z,2.27
2022-12-03T20:31:13.801Z,2.28
2022-12-03T20:33:41.670Z,2.27
2022-12-03T20:36:11.787Z,2.28
2022-12-03T20:38:39.817Z,2.28
2022-12-03T20:41:08.293Z,2.28
2022-12-03T20:43:36.095Z,2.29
2022-12-03T20:46:04.093Z,2.32
2022-12-03T20:48:31.983Z,2.32
2022-12-03T20:50:59.884Z,2.31
2022-12-03T20:53:28.709Z,2.32
2022-12-03T20:55:58.084Z,2.32
2022-12-03T20:58:25.976Z,2.32
2022-12-03T21:00:56.426Z,2.31
2022-12-03T21:03:24.482Z,2.33
2022-12-03T21:05:52.909Z,2.33
2022-12-03T21:08:39.276Z,2.31
2022-12-03T21:11:10.290Z,2.30
2022-12-03T21:13:42.248Z,2.30
2022-12-03T21:16:11.037Z,2.30
2022-12-03T21:18:38.907Z,2.30
2022-12-03T21:21:06.924Z,2.31
2022-12-03T21:23:34.753Z,2.32
2022-12-03T21:26:02.621Z,2.32
2022-12-03T21:28:31.275Z,2.31
2022-12-03T21:30:59.074Z,2.32
2022-12-03T21:33:26.973Z,2.33
2022-12-03T21:35:55.379Z,2.34
2022-12-03T21:38:23.297Z,2.33
2022-12-03T21:40:51.775Z,2.32
2022-12-03T21:43:19.749Z,2.33
2022-12-03T21:45:47.652Z,2.34
2022-12-03T21:48:15.506Z,2.32
2022-12-03T21:50:43.352Z,2.33
2022-12-03T21:53:11.533Z,2.33
2022-12-03T21:55:39.451Z,2.33
2022-12-03T21:58:07.818Z,2.32
2022-12-03T22:00:38.485Z,2.33
2022-12-03T22:03:06.354Z,2.33
2022-12-03T22:05:34.796Z,2.33
2022-12-03T22:08:02.877Z,2.31
2022-12-03T22:10:30.734Z,2.31
2022-12-03T22:13:00.391Z,2.29
2022-12-03T22:15:28.270Z,2.30
2022-12-03T22:17:56.603Z,2.30
2022-12-03T22:20:25.073Z,2.29
2022-12-03T22:22:52.977Z,2.28
2022-12-03T22:25:23.487Z,2.27
2022-12-03T22:27:51.334Z,2.28
2022-12-03T22:30:19.468Z,2.28
2022-12-03T22:32:47.193Z,2.29
2022-12-03T22:35:15.203Z,2.30
2022-12-03T22:37:43.183Z,2.30
2022-12-03T22:40:10.942Z,2.30
2022-12-03T22:42:39.919Z,2.31
2022-12-03T22:45:07.830Z,2.29
2022-12-03T22:47:35.628Z,2.30
2022-12-03T22:50:03.638Z,2.31
2022-12-03T22:52:31.421Z,2.32
2022-12-03T22:54:59.642Z,2.32
2022-12-03T22:57:27.570Z,2.32
2022-12-03T22:59:55.720Z,2.32
2022-12-03T23:02:23.735Z,2.33
2022-12-03T23:04:52.111Z,2.30
2022-12-03T23:07:19.910Z,2.29
2022-12-03T23:09:47.681Z,2.28
2022-12-03T23:12:15.787Z,2.29
2022-12-03T23:14:44.102Z,2.29
2022-12-03T23:17:11.842Z,2.27
2022-12-03T23:19:39.899Z,2.26
2022-12-03T23:22:07.855Z,2.25
2022-12-03T23:24:35.786Z,2.24
2022-12-03T23:27:08.125Z,2.23
2022-12-03T23:29:35.901Z,2.23
2022-12-03T23:32:03.752Z,2.23
2022-12-03T23:34:31.685Z,2.26
2022-12-03T23:36:59.452Z,2.25
2022-12-03T23:39:29.150Z,2.26
2022-12-03T23:41:56.971Z,2.25
2022-12-03T23:44:25.408Z,2.25
2022-12-03T23:46:53.195Z,2.25
2022-12-03T23:49:21.051Z,2.26
2022-12-03T23:51:49.949Z,2.27
2022-12-03T23:54:17.646Z,2.25
2022-12-03T23:56:46.745Z,2.26
2022-12-03T23:59:14.819Z,2.25
